createdAt,value
2018-02-19T00:00:47.146Z,1017.51
2018-02-19T00:01:47.118Z,1017.51
2018-02-19T00:02:47.095Z,1017.53
2018-02-19T00:03:47.074Z,1017.52
2018-02-19T00:04:47.047Z,1017.52
2018-02-19T00:05:47.025Z,1017.49
2018-02-19T00:06:47.003Z,1017.48
2018-02-19T00:07:46.978Z,1017.47
2018-02-19T00:08:46.953Z,1017.46
2018-02-19T00:09:46.928Z,1017.47
2018-02-19T00:10:46.903Z,1017.45
2018-02-19T00:11:46.880Z,1017.49
2018-02-19T00:12:46.857Z,1017.46
2018-02-19T00:13:46.837Z,1017.48
2018-02-19T00:14:46.810Z,1017.41
2018-02-19T00:15:46.790Z,1017.46
2018-02-19T00:16:46.765Z,1017.45
2018-02-19T00:17:46.740Z,1017.43
2018-02-19T00:18:46.711Z,1017.47
2018-02-19T00:19:46.687Z,1017.42
2018-02-19T00:20:46.663Z,1017.39
2018-02-19T00:21:46.646Z,1017.38
2018-02-19T00:22:46.628Z,1017.37
2018-02-19T00:23:46.597Z,1017.37
2018-02-19T00:24:46.576Z,1017.34
2018-02-19T00:25:46.548Z,1017.31
2018-02-19T00:26:46.526Z,1017.28
2018-02-19T00:27:46.497Z,1017.30
2018-02-19T00:28:46.476Z,1017.29
2018-02-19T00:29:46.455Z,1017.26
2018-02-19T00:30:46.429Z,1017.24
2018-02-19T00:31:46.407Z,1017.25
2018-02-19T00:32:46.384Z,1017.26
2018-02-19T00:33:46.361Z,1017.20
2018-02-19T00:34:46.339Z,1017.24
2018-02-19T00:35:46.326Z,1017.22
2018-02-19T00:36:46.288Z,1017.18
2018-02-19T00:37:46.260Z,1017.21
2018-02-19T00:38:46.240Z,1017.19
2018-02-19T00:39:46.217Z,1017.16
2018-02-19T00:40:46.192Z,1017.16
2018-02-19T00:41:46.170Z,1017.14
2018-02-19T00:42:46.154Z,1017.16
2018-02-19T00:43:46.119Z,1017.14
2018-02-19T00:44:46.102Z,1017.13
2018-02-19T00:45:46.076Z,1017.15
2018-02-19T00:46:46.059Z,1017.13
2018-02-19T00:47:46.025Z,1017.11
2018-02-19T00:48:46.010Z,1017.11
2018-02-19T00:49:45.977Z,1017.07
2018-02-19T00:50:45.954Z,1017.06
2018-02-19T00:51:45.927Z,1017.05
2018-02-19T00:52:45.903Z,1017.03
2018-02-19T00:53:45.884Z,1017.00
2018-02-19T00:54:45.859Z,1017.04
2018-02-19T00:55:45.834Z,1017.02
2018-02-19T00:56:45.817Z,1016.99
2018-02-19T00:57:45.784Z,1017.00
2018-02-19T00:58:45.767Z,1017.02
2018-02-19T00:59:45.736Z,1017.00
2018-02-19T01:00:45.713Z,1016.97
2018-02-19T01:01:45.693Z,1016.97
2018-02-19T01:02:45.667Z,1017.00
2018-02-19T01:03:45.657Z,1016.95
2018-02-19T01:04:45.617Z,1016.97
2018-02-19T01:05:45.594Z,1016.98
2018-02-19T01:06:45.572Z,1016.94
2018-02-19T01:07:45.551Z,1016.91
2018-02-19T01:08:45.533Z,1016.92
2018-02-19T01:09:45.497Z,1016.93
2018-02-19T01:10:45.478Z,1016.90
2018-02-19T01:11:45.455Z,1016.90
2018-02-19T01:12:45.430Z,1016.95
2018-02-19T01:13:45.402Z,1016.91
2018-02-19T01:14:45.383Z,1016.92
2018-02-19T01:15:45.358Z,1016.88
2018-02-19T01:16:45.339Z,1016.85
2018-02-19T01:17:45.308Z,1016.87
2018-02-19T01:18:45.287Z,1016.86
2018-02-19T01:19:45.263Z,1016.83
2018-02-19T01:20:45.240Z,1016.81
2018-02-19T01:21:45.217Z,1016.78
2018-02-19T01:22:45.191Z,1016.82
2018-02-19T01:23:45.169Z,1016.83
2018-02-19T01:24:45.147Z,1016.81
2018-02-19T01:25:45.121Z,1016.82
2018-02-19T01:26:45.096Z,1016.83
2018-02-19T01:27:45.076Z,1016.79
2018-02-19T01:28:45.052Z,1016.82
2018-02-19T01:29:45.027Z,1016.77
2018-02-19T01:30:45.001Z,1016.77
2018-02-19T01:31:44.979Z,1016.73
2018-02-19T01:32:44.952Z,1016.78
2018-02-19T01:33:44.935Z,1016.76
2018-02-19T01:34:44.910Z,1016.75
2018-02-19T01:35:44.885Z,1016.73
2018-02-19T01:36:44.866Z,1016.72
2018-02-19T01:37:44.840Z,1016.70
2018-02-19T01:38:44.811Z,1016.72
2018-02-19T01:39:44.795Z,1016.70
2018-02-19T01:40:44.764Z,1016.67
2018-02-19T01:41:44.739Z,1016.64
2018-02-19T01:42:44.719Z,1016.66
2018-02-19T01:43:44.706Z,1016.66
2018-02-19T01:44:44.670Z,1016.62
2018-02-19T01:45:44.647Z,1016.62
2018-02-19T01:46:44.623Z,1016.57
2018-02-19T01:47:44.600Z,1016.60
2018-02-19T01:48:44.578Z,1016.56
2018-02-19T01:49:44.557Z,1016.54
2018-02-19T01:50:44.527Z,1016.49
2018-02-19T01:51:44.505Z,1016.48
2018-02-19T01:52:44.486Z,1016.48
2018-02-19T01:53:44.463Z,1016.47
2018-02-19T01:54:44.433Z,1016.53
2018-02-19T01:55:44.412Z,1016.47
2018-02-19T01:56:44.387Z,1016.46
2018-02-19T01:57:44.361Z,1016.42
2018-02-19T01:58:44.336Z,1016.42
2018-02-19T01:59:44.316Z,1016.39
2018-02-19T02:00:44.295Z,1016.37
2018-02-19T02:01:44.268Z,1016.34
2018-02-19T02:02:44.243Z,1016.37
2018-02-19T02:03:44.222Z,1016.38
2018-02-19T02:04:44.198Z,1016.37
2018-02-19T02:05:44.176Z,1016.36
2018-02-19T02:06:44.149Z,1016.34
2018-02-19T02:07:44.126Z,1016.36
2018-02-19T02:08:44.104Z,1016.38
2018-02-19T02:09:44.077Z,1016.35
2018-02-19T02:10:44.057Z,1016.36
2018-02-19T02:11:44.030Z,1016.37
2018-02-19T02:12:44.014Z,1016.38
2018-02-19T02:13:43.982Z,1016.37
2018-02-19T02:14:43.962Z,1016.32
2018-02-19T02:15:43.938Z,1016.35
2018-02-19T02:16:43.918Z,1016.32
2018-02-19T02:17:43.889Z,1016.33
2018-02-19T02:18:43.869Z,1016.34
2018-02-19T02:19:43.842Z,1016.30
2018-02-19T02:20:43.819Z,1016.29
2018-02-19T02:21:43.793Z,1016.31
2018-02-19T02:22:43.773Z,1016.31
2018-02-19T02:23:43.747Z,1016.29
2018-02-19T02:24:43.723Z,1016.24
2018-02-19T02:25:43.700Z,1016.29
2018-02-19T02:26:43.677Z,1016.27
2018-02-19T02:27:43.655Z,1016.27
2018-02-19T02:28:43.631Z,1016.25
2018-02-19T02:29:43.605Z,1016.25
2018-02-19T02:30:43.580Z,1016.26
2018-02-19T02:31:43.564Z,1016.24
2018-02-19T02:32:43.536Z,1016.24
2018-02-19T02:33:43.511Z,1016.25
2018-02-19T02:34:43.485Z,1016.26
2018-02-19T02:35:43.464Z,1016.25
2018-02-19T02:36:43.439Z,1016.23
2018-02-19T02:37:43.413Z,1016.22
2018-02-19T02:38:43.389Z,1016.22
2018-02-19T02:39:43.368Z,1016.17
2018-02-19T02:40:43.352Z,1016.22
2018-02-19T02:41:43.328Z,1016.21
2018-02-19T02:42:43.310Z,1016.19
2018-02-19T02:43:43.271Z,1016.22
2018-02-19T02:44:43.248Z,1016.24
2018-02-19T02:45:43.232Z,1016.25
2018-02-19T02:46:43.201Z,1016.22
2018-02-19T02:47:43.176Z,1016.26
2018-02-19T02:48:43.149Z,1016.26
2018-02-19T02:49:43.132Z,1016.28
2018-02-19T02:50:43.105Z,1016.25
2018-02-19T02:51:43.091Z,1016.25
2018-02-19T02:52:43.057Z,1016.22
2018-02-19T02:53:43.033Z,1016.25
2018-02-19T02:54:43.009Z,1016.26
2018-02-19T02:55:42.985Z,1016.23
2018-02-19T02:56:42.962Z,1016.24
2018-02-19T02:57:42.939Z,1016.24
2018-02-19T02:58:42.914Z,1016.28
2018-02-19T02:59:42.892Z,1016.27
2018-02-19T03:00:42.870Z,1016.26
2018-02-19T03:01:42.841Z,1016.25
2018-02-19T03:02:42.816Z,1016.22
2018-02-19T03:03:42.792Z,1016.21
2018-02-19T03:04:42.772Z,1016.22
2018-02-19T03:05:42.751Z,1016.26
2018-02-19T03:06:42.728Z,1016.21
2018-02-19T03:07:42.696Z,1016.24
2018-02-19T03:08:42.676Z,1016.24
2018-02-19T03:09:42.650Z,1016.25
2018-02-19T03:10:42.628Z,1016.21
2018-02-19T03:11:42.604Z,1016.19
2018-02-19T03:12:42.579Z,1016.16
2018-02-19T03:13:42.556Z,1016.12
2018-02-19T03:14:42.540Z,1016.13
2018-02-19T03:15:42.506Z,1016.12
2018-02-19T03:16:42.487Z,1016.12
2018-02-19T03:17:42.457Z,1016.12
2018-02-19T03:18:42.448Z,1016.11
2018-02-19T03:19:42.417Z,1016.09
2018-02-19T03:20:42.387Z,1016.08
2018-02-19T03:21:42.368Z,1016.09
2018-02-19T03:22:42.348Z,1016.10
2018-02-19T03:23:42.323Z,1016.10
2018-02-19T03:24:42.295Z,1016.08
2018-02-19T03:25:42.267Z,1016.07
2018-02-19T03:26:42.248Z,1016.07
2018-02-19T03:27:42.224Z,1016.04
2018-02-19T03:28:42.198Z,1016.05
2018-02-19T03:29:42.174Z,1016.06
2018-02-19T03:30:42.147Z,1016.04
2018-02-19T03:31:42.127Z,1016.01
2018-02-19T03:32:42.098Z,1016.03
2018-02-19T03:33:42.082Z,1015.99
2018-02-19T03:34:42.056Z,1015.99
2018-02-19T03:35:42.026Z,1015.97
2018-02-19T03:36:42.007Z,1015.97
2018-02-19T03:37:41.986Z,1016.00
2018-02-19T03:38:41.960Z,1016.02
2018-02-19T03:39:41.936Z,1016.00
2018-02-19T03:40:41.916Z,1016.00
2018-02-19T03:41:41.887Z,1015.97
2018-02-19T03:42:41.867Z,1015.97
2018-02-19T03:43:41.841Z,1015.92
2018-02-19T03:44:41.814Z,1015.93
2018-02-19T03:45:41.786Z,1015.91
2018-02-19T03:46:41.768Z,1015.84
2018-02-19T03:47:41.740Z,1015.84
2018-02-19T03:48:41.721Z,1015.84
2018-02-19T03:49:41.691Z,1015.83
2018-02-19T03:50:41.675Z,1015.84
2018-02-19T03:51:41.649Z,1015.82
2018-02-19T03:52:41.624Z,1015.83
2018-02-19T03:53:41.594Z,1015.77
2018-02-19T03:54:41.577Z,1015.79
2018-02-19T03:55:41.586Z,1015.77
2018-02-19T03:56:41.526Z,1015.77
2018-02-19T03:57:41.504Z,1015.78
2018-02-19T03:58:41.476Z,1015.74
2018-02-19T03:59:41.457Z,1015.76
2018-02-19T04:00:41.429Z,1015.76
2018-02-19T04:01:41.404Z,1015.73
2018-02-19T04:02:41.381Z,1015.69
2018-02-19T04:03:41.365Z,1015.66
2018-02-19T04:04:41.336Z,1015.66
2018-02-19T04:05:41.308Z,1015.62
2018-02-19T04:06:41.288Z,1015.62
2018-02-19T04:07:41.276Z,1015.60
2018-02-19T04:08:41.237Z,1015.57
2018-02-19T04:09:41.214Z,1015.57
2018-02-19T04:10:41.195Z,1015.57
2018-02-19T04:11:41.167Z,1015.54
2018-02-19T04:12:41.143Z,1015.55
2018-02-19T04:13:41.119Z,1015.49
2018-02-19T04:14:41.101Z,1015.47
2018-02-19T04:15:41.071Z,1015.45
2018-02-19T04:16:41.049Z,1015.43
2018-02-19T04:17:41.031Z,1015.43
2018-02-19T04:18:41.000Z,1015.41
2018-02-19T04:19:40.976Z,1015.41
2018-02-19T04:20:40.957Z,1015.41
2018-02-19T04:21:40.927Z,1015.39
2018-02-19T04:22:40.909Z,1015.41
2018-02-19T04:23:40.880Z,1015.36
2018-02-19T04:24:40.858Z,1015.35
2018-02-19T04:25:40.840Z,1015.35
2018-02-19T04:26:40.807Z,1015.30
2018-02-19T04:27:40.786Z,1015.29
2018-02-19T04:28:40.762Z,1015.25
2018-02-19T04:29:40.738Z,1015.26
2018-02-19T04:30:40.713Z,1015.30
2018-02-19T04:31:40.689Z,1015.24
2018-02-19T04:32:40.664Z,1015.26
2018-02-19T04:33:40.642Z,1015.24
2018-02-19T04:34:40.616Z,1015.22
2018-02-19T04:35:40.592Z,1015.25
2018-02-19T04:36:40.570Z,1015.23
2018-02-19T04:37:40.548Z,1015.24
2018-02-19T04:38:40.524Z,1015.25
2018-02-19T04:39:40.498Z,1015.24
2018-02-19T04:40:40.475Z,1015.23
2018-02-19T04:41:40.447Z,1015.22
2018-02-19T04:42:40.426Z,1015.21
2018-02-19T04:43:40.404Z,1015.21
2018-02-19T04:44:40.382Z,1015.19
2018-02-19T04:45:40.356Z,1015.16
2018-02-19T04:46:40.333Z,1015.15
2018-02-19T04:47:40.307Z,1015.16
2018-02-19T04:48:40.283Z,1015.17
2018-02-19T04:49:40.264Z,1015.16
2018-02-19T04:50:40.237Z,1015.16
2018-02-19T04:51:40.213Z,1015.17
2018-02-19T04:52:40.188Z,1015.14
2018-02-19T04:53:40.166Z,1015.16
2018-02-19T04:54:40.138Z,1015.13
2018-02-19T04:55:40.116Z,1015.15
2018-02-19T04:56:40.097Z,1015.17
2018-02-19T04:57:40.070Z,1015.16
2018-02-19T04:58:40.042Z,1015.18
2018-02-19T04:59:40.021Z,1015.18
2018-02-19T05:00:40.000Z,1015.16
2018-02-19T05:01:39.974Z,1015.17
2018-02-19T05:02:39.947Z,1015.17
2018-02-19T05:03:39.928Z,1015.15
2018-02-19T05:04:39.904Z,1015.14
2018-02-19T05:05:39.879Z,1015.11
2018-02-19T05:06:39.857Z,1015.15
2018-02-19T05:07:39.830Z,1015.17
2018-02-19T05:08:39.808Z,1015.22
2018-02-19T05:09:39.789Z,1015.23
2018-02-19T05:10:39.759Z,1015.25
2018-02-19T05:11:39.735Z,1015.24
2018-02-19T05:12:39.709Z,1015.27
2018-02-19T05:13:39.687Z,1015.25
2018-02-19T05:14:39.663Z,1015.22
2018-02-19T05:15:39.641Z,1015.22
2018-02-19T05:16:39.617Z,1015.22
2018-02-19T05:17:39.592Z,1015.26
2018-02-19T05:18:39.567Z,1015.22
2018-02-19T05:19:39.543Z,1015.24
2018-02-19T05:20:39.523Z,1015.26
2018-02-19T05:21:39.497Z,1015.23
2018-02-19T05:22:39.470Z,1015.22
2018-02-19T05:23:39.450Z,1015.22
2018-02-19T05:24:39.429Z,1015.22
2018-02-19T05:25:39.397Z,1015.24
2018-02-19T05:26:39.373Z,1015.26
2018-02-19T05:27:39.357Z,1015.30
2018-02-19T05:28:39.328Z,1015.29
2018-02-19T05:29:39.307Z,1015.31
2018-02-19T05:30:39.287Z,1015.25
2018-02-19T05:31:39.257Z,1015.28
2018-02-19T05:32:39.238Z,1015.30
2018-02-19T05:33:39.206Z,1015.36
2018-02-19T05:34:39.185Z,1015.34
2018-02-19T05:35:39.162Z,1015.29
2018-02-19T05:36:39.139Z,1015.34
2018-02-19T05:37:39.110Z,1015.34
2018-02-19T05:38:39.095Z,1015.32
2018-02-19T05:39:39.067Z,1015.33
2018-02-19T05:40:39.045Z,1015.29
2018-02-19T05:41:39.014Z,1015.27
2018-02-19T05:42:38.996Z,1015.28
2018-02-19T05:43:38.971Z,1015.20
2018-02-19T05:44:38.962Z,1015.23
2018-02-19T05:45:38.926Z,1015.21
2018-02-19T05:46:38.897Z,1015.22
2018-02-19T05:47:38.899Z,1015.26
2018-02-19T05:48:38.851Z,1015.23
2018-02-19T05:49:38.826Z,1015.24
2018-02-19T05:50:38.800Z,1015.26
2018-02-19T05:51:38.776Z,1015.25
2018-02-19T05:52:38.757Z,1015.26
2018-02-19T05:53:38.753Z,1015.27
2018-02-19T05:54:38.706Z,1015.24
2018-02-19T05:55:38.688Z,1015.20
2018-02-19T05:56:38.669Z,1015.19
2018-02-19T05:57:38.634Z,1015.25
2018-02-19T05:58:38.611Z,1015.25
2018-02-19T05:59:38.592Z,1015.22
2018-02-19T06:00:38.562Z,1015.25
2018-02-19T06:01:38.539Z,1015.25
2018-02-19T06:02:38.519Z,1015.20
2018-02-19T06:03:38.492Z,1015.21
2018-02-19T06:04:38.467Z,1015.19
2018-02-19T06:05:38.443Z,1015.20
2018-02-19T06:06:38.420Z,1015.20
2018-02-19T06:07:38.396Z,1015.19
2018-02-19T06:08:38.378Z,1015.17
2018-02-19T06:09:38.348Z,1015.14
2018-02-19T06:10:38.324Z,1015.14
2018-02-19T06:11:38.304Z,1015.14
2018-02-19T06:12:38.280Z,1015.13
2018-02-19T06:13:38.257Z,1015.15
2018-02-19T06:14:38.229Z,1015.16
2018-02-19T06:15:38.206Z,1015.13
2018-02-19T06:16:38.181Z,1015.18
2018-02-19T06:17:38.168Z,1015.21
2018-02-19T06:18:38.139Z,1015.18
2018-02-19T06:19:38.122Z,1015.21
2018-02-19T06:20:38.086Z,1015.22
2018-02-19T06:21:38.062Z,1015.21
2018-02-19T06:22:38.045Z,1015.21
2018-02-19T06:23:38.016Z,1015.24
2018-02-19T06:24:37.990Z,1015.22
2018-02-19T06:25:37.963Z,1015.23
2018-02-19T06:26:37.944Z,1015.20
2018-02-19T06:27:37.919Z,1015.20
2018-02-19T06:28:37.895Z,1015.22
2018-02-19T06:29:37.867Z,1015.21
2018-02-19T06:30:37.849Z,1015.26
2018-02-19T06:31:37.825Z,1015.26
2018-02-19T06:32:37.803Z,1015.27
2018-02-19T06:33:37.772Z,1015.25
2018-02-19T06:34:37.752Z,1015.29
2018-02-19T06:35:37.728Z,1015.29
2018-02-19T06:36:37.704Z,1015.31
2018-02-19T06:37:37.676Z,1015.32
2018-02-19T06:38:37.657Z,1015.30
2018-02-19T06:39:37.636Z,1015.36
2018-02-19T06:40:37.607Z,1015.32
2018-02-19T06:41:37.586Z,1015.31
2018-02-19T06:42:37.558Z,1015.32
2018-02-19T06:43:37.535Z,1015.32
2018-02-19T06:44:37.516Z,1015.27
2018-02-19T06:45:37.486Z,1015.25
2018-02-19T06:46:37.472Z,1015.20
2018-02-19T06:47:37.440Z,1015.27
2018-02-19T06:48:37.420Z,1015.28
2018-02-19T06:49:37.389Z,1015.30
2018-02-19T06:50:37.365Z,1015.31
2018-02-19T06:51:37.347Z,1015.30
2018-02-19T06:52:37.316Z,1015.34
2018-02-19T06:53:37.297Z,1015.33
2018-02-19T06:54:37.270Z,1015.35
2018-02-19T06:55:37.252Z,1015.39
2018-02-19T06:56:37.229Z,1015.33
2018-02-19T06:57:37.196Z,1015.35
2018-02-19T06:58:37.177Z,1015.36
2018-02-19T06:59:37.149Z,1015.38
2018-02-19T07:00:37.128Z,1015.36
2018-02-19T07:01:37.104Z,1015.38
2018-02-19T07:02:37.078Z,1015.37
2018-02-19T07:03:37.057Z,1015.38
2018-02-19T07:04:37.029Z,1015.36
2018-02-19T07:05:37.005Z,1015.31
2018-02-19T07:06:36.986Z,1015.32
2018-02-19T07:07:36.957Z,1015.29
2018-02-19T07:08:36.934Z,1015.23
2018-02-19T07:09:36.911Z,1015.22
2018-02-19T07:10:36.888Z,1015.20
2018-02-19T07:11:36.864Z,1015.18
2018-02-19T07:12:36.839Z,1015.23
2018-02-19T07:13:36.815Z,1015.23
2018-02-19T07:14:36.794Z,1015.22
2018-02-19T07:15:36.767Z,1015.24
2018-02-19T07:16:36.745Z,1015.21
2018-02-19T07:17:36.725Z,1015.22
2018-02-19T07:18:36.698Z,1015.19
2018-02-19T07:19:36.691Z,1015.21
2018-02-19T07:20:36.649Z,1015.17
2018-02-19T07:21:36.624Z,1015.16
2018-02-19T07:22:36.607Z,1015.15
2018-02-19T07:23:36.577Z,1015.08
2018-02-19T07:24:36.552Z,1015.04
2018-02-19T07:25:36.527Z,1015.07
2018-02-19T07:26:36.541Z,1015.04
2018-02-19T07:27:36.485Z,1015.07
2018-02-19T07:28:36.475Z,1015.04
2018-02-19T07:29:36.434Z,1014.99
2018-02-19T07:30:36.411Z,1015.00
2018-02-19T07:31:36.387Z,1015.02
2018-02-19T07:32:36.363Z,1015.05
2018-02-19T07:33:36.336Z,1015.04
2018-02-19T07:34:36.313Z,1014.98
2018-02-19T07:35:36.291Z,1015.00
2018-02-19T07:36:36.267Z,1014.99
2018-02-19T07:37:36.244Z,1014.96
2018-02-19T07:38:36.218Z,1014.97
2018-02-19T07:39:36.198Z,1014.96
2018-02-19T07:40:36.171Z,1014.98
2018-02-19T07:41:36.145Z,1015.02
2018-02-19T07:42:36.125Z,1015.05
2018-02-19T07:43:36.103Z,1015.06
2018-02-19T07:44:36.075Z,1015.08
2018-02-19T07:45:36.049Z,1015.10
2018-02-19T07:46:36.027Z,1015.13
2018-02-19T07:47:36.010Z,1015.16
2018-02-19T07:48:35.979Z,1015.14
2018-02-19T07:49:35.957Z,1015.17
2018-02-19T07:50:35.934Z,1015.12
2018-02-19T07:51:35.910Z,1015.16
2018-02-19T07:52:35.890Z,1015.16
2018-02-19T07:53:35.865Z,1015.19
2018-02-19T07:54:35.838Z,1015.22
2018-02-19T07:55:35.815Z,1015.27
2018-02-19T07:56:35.795Z,1015.24
2018-02-19T07:57:35.769Z,1015.19
2018-02-19T07:58:35.739Z,1015.17
2018-02-19T07:59:35.718Z,1015.18
2018-02-19T08:00:35.696Z,1015.17
2018-02-19T08:01:35.672Z,1015.17
2018-02-19T08:02:35.648Z,1015.14
2018-02-19T08:03:35.624Z,1015.11
2018-02-19T08:04:35.601Z,1015.12
2018-02-19T08:05:35.576Z,1015.10
2018-02-19T08:06:35.556Z,1015.07
2018-02-19T08:07:35.531Z,1015.09
2018-02-19T08:08:35.506Z,1015.07
2018-02-19T08:09:35.478Z,1015.10
2018-02-19T08:10:35.457Z,1015.11
2018-02-19T08:11:35.433Z,1015.12
2018-02-19T08:12:35.431Z,1015.14
2018-02-19T08:13:35.395Z,1015.10
2018-02-19T08:14:35.363Z,1015.13
2018-02-19T08:15:35.348Z,1015.09
2018-02-19T08:16:35.314Z,1015.10
2018-02-19T08:17:35.287Z,1015.04
2018-02-19T08:18:35.266Z,1015.07
2018-02-19T08:19:35.243Z,1015.10
2018-02-19T08:20:35.219Z,1015.09
2018-02-19T08:21:35.196Z,1015.08
2018-02-19T08:22:35.178Z,1015.07
2018-02-19T08:23:35.149Z,1015.05
2018-02-19T08:24:35.127Z,1015.05
2018-02-19T08:25:35.102Z,1015.02
2018-02-19T08:26:35.077Z,1015.05
2018-02-19T08:27:35.053Z,1015.04
2018-02-19T08:28:35.031Z,1015.03
2018-02-19T08:29:35.005Z,1015.02
2018-02-19T08:30:34.981Z,1015.04
2018-02-19T08:31:34.965Z,1014.96
2018-02-19T08:32:34.935Z,1014.95
2018-02-19T08:33:34.910Z,1014.87
2018-02-19T08:34:34.925Z,1014.90
2018-02-19T08:35:34.867Z,1014.81
2018-02-19T08:36:34.847Z,1014.83
2018-02-19T08:37:34.817Z,1014.80
2018-02-19T08:38:34.794Z,1014.78
2018-02-19T08:39:34.767Z,1014.81
2018-02-19T08:40:34.749Z,1014.79
2018-02-19T08:41:34.727Z,1014.77
2018-02-19T08:42:34.696Z,1014.77
2018-02-19T08:43:34.676Z,1014.78
2018-02-19T08:44:34.651Z,1014.73
2018-02-19T08:45:34.626Z,1014.76
2018-02-19T08:46:34.606Z,1014.78
2018-02-19T08:47:34.585Z,1014.81
2018-02-19T08:48:34.557Z,1014.83
2018-02-19T08:49:34.537Z,1014.84
2018-02-19T08:50:34.514Z,1014.88
2018-02-19T08:51:34.487Z,1014.89
2018-02-19T08:52:34.466Z,1014.87
2018-02-19T08:53:34.447Z,1014.85
2018-02-19T08:54:34.416Z,1014.87
2018-02-19T08:55:34.393Z,1014.89
2018-02-19T08:56:34.376Z,1014.87
2018-02-19T08:57:34.348Z,1014.87
2018-02-19T08:58:34.323Z,1014.84
2018-02-19T08:59:34.316Z,1014.82
2018-02-19T09:00:34.279Z,1014.80
2018-02-19T09:01:34.253Z,1014.81
2018-02-19T09:02:34.228Z,1014.84
2018-02-19T09:03:34.205Z,1014.79
2018-02-19T09:04:34.183Z,1014.81
2018-02-19T09:05:34.173Z,1014.83
2018-02-19T09:06:34.135Z,1014.80
2018-02-19T09:07:34.110Z,1014.82
2018-02-19T09:08:34.087Z,1014.82
2018-02-19T09:09:34.062Z,1014.83
2018-02-19T09:10:34.038Z,1014.87
2018-02-19T09:11:34.013Z,1014.91
2018-02-19T09:12:33.997Z,1014.91
2018-02-19T09:13:33.969Z,1014.89
2018-02-19T09:14:33.949Z,1014.93
2018-02-19T09:15:33.928Z,1014.93
2018-02-19T09:16:33.901Z,1014.88
2018-02-19T09:17:33.871Z,1014.90
2018-02-19T09:18:33.849Z,1014.86
2018-02-19T09:19:33.828Z,1014.83
2018-02-19T09:20:33.806Z,1014.78
2018-02-19T09:21:33.790Z,1014.77
2018-02-19T09:22:33.756Z,1014.79
2018-02-19T09:23:33.731Z,1014.76
2018-02-19T09:24:33.730Z,1014.76
2018-02-19T09:25:33.690Z,1014.76
2018-02-19T09:26:33.663Z,1014.75
2018-02-19T09:27:33.641Z,1014.73
2018-02-19T09:28:33.620Z,1014.73
2018-02-19T09:29:33.590Z,1014.75
2018-02-19T09:30:33.567Z,1014.71
2018-02-19T09:31:33.555Z,1014.70
2018-02-19T09:32:33.517Z,1014.66
2018-02-19T09:33:33.493Z,1014.68
2018-02-19T09:34:33.472Z,1014.63
2018-02-19T09:35:33.447Z,1014.70
2018-02-19T09:36:33.428Z,1014.70
2018-02-19T09:37:33.403Z,1014.72
2018-02-19T09:38:33.376Z,1014.74
2018-02-19T09:39:33.353Z,1014.76
2018-02-19T09:40:33.330Z,1014.78
2018-02-19T09:41:33.308Z,1014.81
2018-02-19T09:42:33.282Z,1014.76
2018-02-19T09:43:33.267Z,1014.77
2018-02-19T09:44:33.237Z,1014.78
2018-02-19T09:45:33.213Z,1014.77
2018-02-19T09:46:33.189Z,1014.75
2018-02-19T09:47:33.166Z,1014.72
2018-02-19T09:48:33.146Z,1014.74
2018-02-19T09:49:33.116Z,1014.74
2018-02-19T09:50:33.095Z,1014.74
2018-02-19T09:51:33.087Z,1014.75
2018-02-19T09:52:33.047Z,1014.76
2018-02-19T09:53:33.028Z,1014.74
2018-02-19T09:54:33.003Z,1014.73
2018-02-19T09:55:32.977Z,1014.70
2018-02-19T09:56:32.959Z,1014.70
2018-02-19T09:57:32.940Z,1014.72
2018-02-19T09:58:32.911Z,1014.69
2018-02-19T09:59:32.885Z,1014.69
2018-02-19T10:00:32.863Z,1014.66
2018-02-19T10:01:32.839Z,1014.69
2018-02-19T10:02:32.821Z,1014.64
2018-02-19T10:03:32.790Z,1014.66
2018-02-19T10:04:32.768Z,1014.67
2018-02-19T10:05:32.752Z,1014.66
2018-02-19T10:06:32.724Z,1014.68
2018-02-19T10:07:32.699Z,1014.69
2018-02-19T10:08:32.680Z,1014.67
2018-02-19T10:09:32.648Z,1014.65
2018-02-19T10:10:32.628Z,1014.62
2018-02-19T10:11:32.607Z,1014.63
2018-02-19T10:12:32.577Z,1014.59
2018-02-19T10:13:32.556Z,1014.61
2018-02-19T10:14:32.536Z,1014.61
2018-02-19T10:15:32.508Z,1014.61
2018-02-19T10:16:32.487Z,1014.59
2018-02-19T10:17:32.461Z,1014.59
2018-02-19T10:18:32.487Z,1014.60
2018-02-19T10:19:32.418Z,1014.59
2018-02-19T10:20:32.393Z,1014.59
2018-02-19T10:21:32.372Z,1014.60
2018-02-19T10:22:32.348Z,1014.60
2018-02-19T10:23:32.323Z,1014.58
2018-02-19T10:24:32.306Z,1014.54
2018-02-19T10:25:32.279Z,1014.55
2018-02-19T10:26:32.252Z,1014.51
2018-02-19T10:27:32.234Z,1014.51
2018-02-19T10:28:32.207Z,1014.55
2018-02-19T10:29:32.188Z,1014.54
2018-02-19T10:30:32.163Z,1014.60
2018-02-19T10:31:32.139Z,1014.58
2018-02-19T10:32:32.121Z,1014.61
2018-02-19T10:33:32.091Z,1014.60
2018-02-19T10:34:32.070Z,1014.58
2018-02-19T10:35:32.046Z,1014.59
2018-02-19T10:36:32.028Z,1014.58
2018-02-19T10:37:32.005Z,1014.53
2018-02-19T10:38:31.978Z,1014.56
2018-02-19T10:39:31.957Z,1014.55
2018-02-19T10:40:31.934Z,1014.57
2018-02-19T10:41:31.909Z,1014.60
2018-02-19T10:42:31.886Z,1014.58
2018-02-19T10:43:31.862Z,1014.60
2018-02-19T10:44:31.838Z,1014.55
2018-02-19T10:45:31.824Z,1014.55
2018-02-19T10:46:31.793Z,1014.52
2018-02-19T10:47:31.768Z,1014.51
2018-02-19T10:48:31.758Z,1014.47
2018-02-19T10:49:31.719Z,1014.49
2018-02-19T10:50:31.698Z,1014.45
2018-02-19T10:51:31.678Z,1014.48
2018-02-19T10:52:31.656Z,1014.45
2018-02-19T10:53:31.634Z,1014.43
2018-02-19T10:54:31.608Z,1014.43
2018-02-19T10:55:31.584Z,1014.44
2018-02-19T10:56:31.564Z,1014.43
2018-02-19T10:57:31.536Z,1014.44
2018-02-19T10:58:31.512Z,1014.37
2018-02-19T10:59:31.491Z,1014.33
2018-02-19T11:00:31.470Z,1014.33
2018-02-19T11:01:31.450Z,1014.37
2018-02-19T11:02:31.433Z,1014.35
2018-02-19T11:03:31.400Z,1014.38
2018-02-19T11:04:31.377Z,1014.42
2018-02-19T11:05:31.353Z,1014.40
2018-02-19T11:06:31.335Z,1014.39
2018-02-19T11:07:31.308Z,1014.38
2018-02-19T11:08:31.289Z,1014.33
2018-02-19T11:09:31.275Z,1014.34
2018-02-19T11:10:31.241Z,1014.32
2018-02-19T11:11:31.221Z,1014.29
2018-02-19T11:12:31.196Z,1014.31
2018-02-19T11:13:31.173Z,1014.28
2018-02-19T11:14:31.159Z,1014.31
2018-02-19T11:15:31.127Z,1014.31
2018-02-19T11:16:31.110Z,1014.28
2018-02-19T11:17:31.084Z,1014.27
2018-02-19T11:18:31.069Z,1014.24
2018-02-19T11:19:31.042Z,1014.29
2018-02-19T11:20:31.016Z,1014.29
2018-02-19T11:21:30.993Z,1014.33
2018-02-19T11:22:30.965Z,1014.32
2018-02-19T11:23:30.947Z,1014.35
2018-02-19T11:24:30.925Z,1014.33
2018-02-19T11:25:30.898Z,1014.35
2018-02-19T11:26:30.887Z,1014.28
2018-02-19T11:27:30.852Z,1014.30
2018-02-19T11:28:30.830Z,1014.30
2018-02-19T11:29:30.809Z,1014.27
2018-02-19T11:30:30.791Z,1014.24
2018-02-19T11:31:30.760Z,1014.19
2018-02-19T11:32:30.744Z,1014.26
2018-02-19T11:33:30.719Z,1014.20
2018-02-19T11:34:30.696Z,1014.21
2018-02-19T11:35:30.671Z,1014.12
2018-02-19T11:36:30.655Z,1014.13
2018-02-19T11:37:30.626Z,1014.10
2018-02-19T11:38:30.608Z,1014.11
2018-02-19T11:39:30.584Z,1014.10
2018-02-19T11:40:30.559Z,1014.13
2018-02-19T11:41:30.534Z,1014.09
2018-02-19T11:42:30.515Z,1014.09
2018-02-19T11:43:30.489Z,1014.07
2018-02-19T11:44:30.470Z,1014.09
2018-02-19T11:45:30.449Z,1014.06
2018-02-19T11:46:30.425Z,1014.10
2018-02-19T11:47:30.410Z,1014.10
2018-02-19T11:48:30.374Z,1014.07
2018-02-19T11:49:30.355Z,1014.03
2018-02-19T11:50:30.333Z,1014.05
2018-02-19T11:51:30.313Z,1014.03
2018-02-19T11:52:30.289Z,1014.02
2018-02-19T11:53:30.271Z,1014.02
2018-02-19T11:54:30.243Z,1013.95
2018-02-19T11:55:30.225Z,1013.94
2018-02-19T11:56:30.199Z,1013.95
2018-02-19T11:57:30.174Z,1013.92
2018-02-19T11:58:30.154Z,1013.92
2018-02-19T11:59:30.129Z,1013.88
2018-02-19T12:00:30.108Z,1013.90
2018-02-19T12:01:30.091Z,1013.88
2018-02-19T12:02:30.067Z,1013.89
2018-02-19T12:03:30.048Z,1013.82
2018-02-19T12:04:30.026Z,1013.78
2018-02-19T12:05:29.996Z,1013.81